createdAt,value
2023-02-18T00:00:10.400Z,174.74
2023-02-18T00:01:05.361Z,175.47
2023-02-18T00:02:00.517Z,174.55
2023-02-18T00:02:55.754Z,173.83
2023-02-18T00:03:51.034Z,174.01
2023-02-18T00:04:46.217Z,175.10
2023-02-18T00:05:41.313Z,174.92
2023-02-18T00:06:36.530Z,175.29
2023-02-18T00:07:31.466Z,176.21
2023-02-18T00:08:26.513Z,175.84
2023-02-18T00:09:21.743Z,176.40
2023-02-18T00:10:16.863Z,177.34
2023-02-18T00:11:12.268Z,177.72
2023-02-18T00:12:07.353Z,179.05
2023-02-18T00:13:02.472Z,179.82
2023-02-18T00:13:57.653Z,181.98
2023-02-18T00:14:52.756Z,181.98
2023-02-18T00:15:47.849Z,181.98
2023-02-18T00:16:43.354Z,182.78
2023-02-18T00:17:38.183Z,184.39
2023-02-18T00:18:33.398Z,183.38
2023-02-18T00:19:28.642Z,185.42
2023-02-18T00:20:23.772Z,185.42
2023-02-18T00:21:18.958Z,185.21
2023-02-18T00:22:13.969Z,185.83
2023-02-18T00:23:09.108Z,186.45
2023-02-18T00:24:04.199Z,186.24
2023-02-18T00:24:59.245Z,186.04
2023-02-18T00:25:54.589Z,185.73
2023-02-18T00:26:49.691Z,185.52
2023-02-18T00:27:44.785Z,184.99
2023-02-18T00:28:40.008Z,185.62
2023-02-18T00:29:35.272Z,186.26
2023-02-18T00:30:30.241Z,185.83
2023-02-18T00:31:25.594Z,185.83
2023-02-18T00:32:20.456Z,184.89
2023-02-18T00:33:15.896Z,183.58
2023-02-18T00:34:10.976Z,183.18
2023-02-18T00:35:06.236Z,184.60
2023-02-18T00:36:01.372Z,185.62
2023-02-18T00:36:56.827Z,184.79
2023-02-18T00:37:51.769Z,185.10
2023-02-18T00:38:46.897Z,188.39
2023-02-18T00:39:41.922Z,190.91
2023-02-18T00:40:37.044Z,194.08
2023-02-18T00:41:32.298Z,196.87
2023-02-18T00:42:27.198Z,201.09
2023-02-18T00:43:22.247Z,201.34
2023-02-18T00:44:17.272Z,206.93
2023-02-18T00:45:12.283Z,210.92
2023-02-18T00:46:07.543Z,211.33
2023-02-18T00:47:02.379Z,211.60
2023-02-18T00:47:57.425Z,211.19
2023-02-18T00:48:52.527Z,212.28
2023-02-18T00:49:47.543Z,210.78
2023-02-18T00:50:42.569Z,210.24
2023-02-18T00:51:37.695Z,209.57
2023-02-18T00:52:32.723Z,209.30
2023-02-18T00:53:27.959Z,207.06
2023-02-18T00:54:23.109Z,205.50
2023-02-18T00:55:18.708Z,204.86
2023-02-18T00:56:13.839Z,203.72
2023-02-18T00:57:08.946Z,203.09
2023-02-18T00:58:04.092Z,201.34
2023-02-18T00:58:59.391Z,202.09
2023-02-18T00:59:54.657Z,201.46
2023-02-18T01:00:49.646Z,200.48
2023-02-18T01:01:44.980Z,198.30
2023-02-18T01:02:40.217Z,198.42
2023-02-18T01:03:36.130Z,198.06
2023-02-18T01:04:31.263Z,197.35
2023-02-18T01:05:27.104Z,196.75
2023-02-18T01:06:22.158Z,196.87
2023-02-18T01:07:17.645Z,198.06
2023-02-18T01:08:13.418Z,196.87
2023-02-18T01:09:08.508Z,197.11
2023-02-18T01:10:03.619Z,198.18
2023-02-18T01:11:00.226Z,196.87
2023-02-18T01:11:55.428Z,196.52
2023-02-18T01:12:51.230Z,196.99
2023-02-18T01:13:46.279Z,196.05
2023-02-18T01:14:41.405Z,197.82
2023-02-18T01:15:37.160Z,197.82
2023-02-18T01:16:32.704Z,198.42
2023-02-18T01:17:28.348Z,197.82
2023-02-18T01:18:23.690Z,198.06
2023-02-18T01:19:18.796Z,198.18
2023-02-18T01:20:14.714Z,198.54
2023-02-18T01:22:33.900Z,180.02
2023-02-18T01:23:28.847Z,179.05
2023-02-18T01:24:23.911Z,181.58
2023-02-18T01:25:19.093Z,184.19
2023-02-18T01:26:14.253Z,184.99
2023-02-18T01:27:09.352Z,188.29
2023-02-18T01:28:04.413Z,189.37
2023-02-18T01:28:59.833Z,190.03
2023-02-18T01:29:54.751Z,191.03
2023-02-18T01:30:51.346Z,190.36
2023-02-18T01:31:45.215Z,191.25
2023-02-18T01:32:40.539Z,191.81
2023-02-18T01:33:35.495Z,192.71
2023-02-18T01:34:30.560Z,193.28
2023-02-18T01:35:25.757Z,194.42
2023-02-18T01:36:20.923Z,192.26
2023-02-18T01:37:15.853Z,195.00
2023-02-18T01:38:10.957Z,194.88
2023-02-18T01:39:06.127Z,194.42
2023-02-18T01:40:01.305Z,194.19
2023-02-18T01:40:56.364Z,195.12
2023-02-18T01:41:51.580Z,194.31
2023-02-18T01:42:46.730Z,195.23
2023-02-18T01:43:42.133Z,193.28
2023-02-18T01:44:36.899Z,194.65
2023-02-18T01:45:32.125Z,194.31
2023-02-18T01:46:27.335Z,193.50
2023-02-18T01:47:22.531Z,194.54
2023-02-18T01:48:17.466Z,194.65
2023-02-18T01:49:12.814Z,195.12
2023-02-18T01:50:08.005Z,196.75
2023-02-18T01:51:03.151Z,196.63
2023-02-18T01:51:58.252Z,197.23
2023-02-18T01:52:53.435Z,197.35
2023-02-18T01:53:48.402Z,197.35
2023-02-18T01:54:43.605Z,194.88
2023-02-18T01:55:38.825Z,196.75
2023-02-18T01:56:34.001Z,199.26
2023-02-18T01:57:29.022Z,197.82
2023-02-18T01:58:24.074Z,199.51
2023-02-18T01:59:19.378Z,197.94
2023-02-18T02:00:14.451Z,198.18
2023-02-18T02:01:09.715Z,199.51
2023-02-18T02:02:04.937Z,199.14
2023-02-18T02:02:59.897Z,200.73
2023-02-18T02:03:55.034Z,200.36
2023-02-18T02:04:50.069Z,201.09
2023-02-18T02:05:45.175Z,201.59
2023-02-18T02:06:40.338Z,200.85
2023-02-18T02:07:35.552Z,201.59
2023-02-18T02:08:30.750Z,201.71
2023-02-18T02:09:25.824Z,201.71
2023-02-18T02:10:20.919Z,201.84
2023-02-18T02:11:16.357Z,203.97
2023-02-18T02:12:11.155Z,205.50
2023-02-18T02:13:06.616Z,203.21
2023-02-18T02:14:01.688Z,206.15
2023-02-18T02:14:56.781Z,203.97
2023-02-18T02:15:51.831Z,205.50
2023-02-18T02:16:47.107Z,203.09
2023-02-18T02:17:41.886Z,204.48
2023-02-18T02:18:36.977Z,205.63
2023-02-18T02:19:32.047Z,205.89
2023-02-18T02:20:27.253Z,205.89
2023-02-18T02:21:22.469Z,205.63
2023-02-18T02:22:17.532Z,206.28
2023-02-18T02:23:12.726Z,205.37
2023-02-18T02:24:07.814Z,206.67
2023-02-18T02:25:02.982Z,207.19
2023-02-18T02:25:58.072Z,206.41
2023-02-18T02:26:53.381Z,206.93
2023-02-18T02:27:48.456Z,208.64
2023-02-18T02:28:43.551Z,207.58
2023-02-18T02:29:38.759Z,208.11
2023-02-18T02:30:33.907Z,208.90
2023-02-18T02:31:29.035Z,208.51
2023-02-18T02:32:24.233Z,209.71
2023-02-18T02:33:19.650Z,208.90
2023-02-18T02:34:14.570Z,211.60
2023-02-18T02:35:09.758Z,210.78
2023-02-18T02:36:04.711Z,210.78
2023-02-18T02:36:59.916Z,212.28
2023-02-18T02:37:54.947Z,211.46
2023-02-18T02:38:50.322Z,212.28
2023-02-18T02:39:45.222Z,213.11
2023-02-18T02:40:40.543Z,212.83
2023-02-18T02:41:35.682Z,213.94
2023-02-18T02:42:30.625Z,212.01
2023-02-18T02:43:25.955Z,209.30
2023-02-18T02:44:21.163Z,210.24
2023-02-18T02:45:16.313Z,210.38
2023-02-18T02:46:11.983Z,210.92
2023-02-18T02:47:06.675Z,211.19
2023-02-18T02:48:01.730Z,210.24
2023-02-18T02:48:56.970Z,211.74
2023-02-18T02:49:51.996Z,210.92
2023-02-18T02:50:47.236Z,213.39
2023-02-18T02:51:42.926Z,212.28
2023-02-18T02:52:37.976Z,209.97
2023-02-18T02:53:33.194Z,212.56
2023-02-18T02:54:28.823Z,213.39
2023-02-18T02:55:23.611Z,215.35
2023-02-18T02:56:18.803Z,215.07
2023-02-18T02:57:14.010Z,214.36
2023-02-18T02:58:08.993Z,214.64
2023-02-18T02:59:04.933Z,217.92
2023-02-18T03:00:00.117Z,216.63
2023-02-18T03:00:55.126Z,217.49
2023-02-18T03:01:50.891Z,215.49
2023-02-18T03:02:46.066Z,214.08
2023-02-18T03:03:41.871Z,216.91
2023-02-18T03:04:37.059Z,216.63
2023-02-18T03:05:32.181Z,218.94
2023-02-18T03:06:27.963Z,218.07
2023-02-18T03:07:22.905Z,219.67
2023-02-18T03:08:18.370Z,219.53
2023-02-18T03:09:14.719Z,219.82
2023-02-18T03:10:09.830Z,218.36
2023-02-18T03:11:05.692Z,218.94
2023-02-18T03:12:00.791Z,219.09
2023-02-18T03:12:55.871Z,219.82
2023-02-18T03:13:51.692Z,220.71
2023-02-18T03:14:46.898Z,220.86
2023-02-18T03:15:43.653Z,222.50
2023-02-18T03:16:37.853Z,221.75
2023-02-18T03:17:33.056Z,219.82
2023-02-18T03:18:30.016Z,219.09
2023-02-18T03:19:25.248Z,221.30
2023-02-18T03:20:20.452Z,222.96
2023-02-18T03:21:16.636Z,222.96
2023-02-18T03:22:12.214Z,223.87
2023-02-18T03:23:07.527Z,224.18
2023-02-18T03:24:02.699Z,224.95
2023-02-18T03:24:58.069Z,224.33
2023-02-18T03:25:53.805Z,224.18
2023-02-18T03:26:48.744Z,222.65
2023-02-18T03:27:44.651Z,223.72
2023-02-18T03:28:39.840Z,223.41
2023-02-18T03:29:35.171Z,224.18
2023-02-18T03:30:31.293Z,225.41
2023-02-18T03:31:26.184Z,223.41
2023-02-18T03:32:21.329Z,224.48
2023-02-18T03:33:17.731Z,224.64
2023-02-18T03:34:12.866Z,224.48
2023-02-18T03:35:08.782Z,223.87
2023-02-18T03:36:03.828Z,225.10
2023-02-18T03:36:59.053Z,225.56
2023-02-18T03:37:54.963Z,226.81
2023-02-18T03:38:49.930Z,225.10
2023-02-18T03:39:45.678Z,225.72
2023-02-18T03:40:40.840Z,225.25
2023-02-18T03:41:36.221Z,224.95
2023-02-18T03:42:31.961Z,223.41
2023-02-18T03:43:27.310Z,225.41
2023-02-18T03:44:22.234Z,225.72
2023-02-18T03:45:18.841Z,226.03
2023-02-18T03:46:14.325Z,225.25
2023-02-18T03:47:09.967Z,225.41
2023-02-18T03:48:05.155Z,225.10
2023-02-18T03:49:01.055Z,226.65
2023-02-18T03:49:56.136Z,225.56
2023-02-18T03:50:51.375Z,225.25
2023-02-18T03:51:47.290Z,224.79
2023-02-18T03:52:42.382Z,226.18
2023-02-18T03:53:37.729Z,226.81
2023-02-18T03:54:33.624Z,224.18
2023-02-18T03:55:28.715Z,223.72
2023-02-18T03:56:24.013Z,224.64
2023-02-18T03:57:20.239Z,224.48
2023-02-18T03:58:15.465Z,224.79
2023-02-18T03:59:10.609Z,226.03
2023-02-18T04:00:05.562Z,225.87
2023-02-18T04:01:02.319Z,226.81
2023-02-18T04:01:57.535Z,226.03
2023-02-18T04:02:52.457Z,226.50
2023-02-18T04:03:49.203Z,226.97
2023-02-18T04:04:44.052Z,227.44
2023-02-18T04:05:39.963Z,227.60
2023-02-18T04:06:35.182Z,228.07
2023-02-18T04:07:30.192Z,226.34
2023-02-18T04:08:25.945Z,226.81
2023-02-18T04:09:21.433Z,227.28
2023-02-18T04:10:17.164Z,225.72
2023-02-18T04:11:12.241Z,228.55
2023-02-18T04:12:07.601Z,226.81
2023-02-18T04:13:03.482Z,226.81
2023-02-18T04:13:58.516Z,227.91
2023-02-18T04:14:53.641Z,228.39
2023-02-18T04:15:50.232Z,226.50
2023-02-18T04:16:45.572Z,227.60
2023-02-18T04:17:40.626Z,229.03
2023-02-18T04:18:35.749Z,227.44
2023-02-18T04:19:30.905Z,228.23
2023-02-18T04:20:26.612Z,224.79
2023-02-18T04:21:21.685Z,201.22
2023-02-18T04:22:16.893Z,174.37
2023-02-18T04:23:12.926Z,190.14
2023-02-18T04:24:08.126Z,197.35
2023-02-18T04:25:03.213Z,204.61
2023-02-18T04:25:58.281Z,211.60
2023-02-18T04:26:53.377Z,214.08
2023-02-18T04:27:48.714Z,216.91
2023-02-18T04:28:45.014Z,219.67
2023-02-18T04:29:40.458Z,220.41
2023-02-18T04:30:36.046Z,222.65
2023-02-18T04:31:34.878Z,220.86
2023-02-18T04:32:29.930Z,222.20
2023-02-18T04:33:25.153Z,223.87
2023-02-18T04:34:20.408Z,224.33
2023-02-18T04:35:15.485Z,220.26
2023-02-18T04:36:10.662Z,223.57
2023-02-18T04:37:05.631Z,220.86
2023-02-18T04:38:06.531Z,222.50
2023-02-18T04:39:01.885Z,222.96
2023-02-18T04:39:57.335Z,224.95
2023-02-18T04:40:52.032Z,226.50
2023-02-18T04:41:47.144Z,227.28
2023-02-18T04:42:42.253Z,225.87
2023-02-18T04:43:37.446Z,227.44
2023-02-18T04:44:32.669Z,229.99
2023-02-18T04:45:27.944Z,229.19
2023-02-18T04:46:22.987Z,227.12
2023-02-18T04:47:18.348Z,226.81
2023-02-18T04:48:13.555Z,228.23
2023-02-18T04:49:08.457Z,227.44
2023-02-18T04:50:03.793Z,229.03
2023-02-18T04:50:58.865Z,227.12
2023-02-18T04:51:53.977Z,225.56
2023-02-18T04:52:49.187Z,227.76
2023-02-18T04:53:44.561Z,226.03
2023-02-18T04:54:39.489Z,227.44
2023-02-18T04:55:34.590Z,225.72
2023-02-18T04:56:29.976Z,224.95
2023-02-18T04:57:25.096Z,225.41
2023-02-18T04:58:20.205Z,222.96
2023-02-18T04:59:15.541Z,224.48
2023-02-18T05:00:10.590Z,222.20
2023-02-18T05:01:06.007Z,221.90
2023-02-18T05:02:00.930Z,220.12
2023-02-18T05:02:56.029Z,219.23
2023-02-18T05:03:51.102Z,217.49
2023-02-18T05:04:46.227Z,216.20
2023-02-18T05:05:41.286Z,215.35
2023-02-18T05:06:36.763Z,216.63
2023-02-18T05:07:31.980Z,215.35
2023-02-18T05:08:26.901Z,215.07
2023-02-18T05:09:22.200Z,216.34
2023-02-18T05:10:17.103Z,215.49
2023-02-18T05:11:12.725Z,214.79
2023-02-18T05:12:07.648Z,216.49
2023-02-18T05:13:02.844Z,216.20
2023-02-18T05:13:57.891Z,217.20
2023-02-18T05:14:54.118Z,214.08
2023-02-18T05:15:48.439Z,214.50
2023-02-18T05:16:43.497Z,215.49
2023-02-18T05:17:38.566Z,214.08
2023-02-18T05:18:33.617Z,214.79
2023-02-18T05:19:28.702Z,215.07
2023-02-18T05:20:24.160Z,216.34
2023-02-18T05:21:19.247Z,215.63
2023-02-18T05:22:14.487Z,217.06
2023-02-18T05:23:09.556Z,215.07
2023-02-18T05:24:04.684Z,215.63
2023-02-18T05:24:59.713Z,214.50
2023-02-18T05:25:54.784Z,213.67
2023-02-18T05:26:49.871Z,213.80
2023-02-18T05:27:49.829Z,213.25
2023-02-18T05:28:44.962Z,210.78
2023-02-18T05:29:40.217Z,212.15
2023-02-18T05:30:36.048Z,212.97
2023-02-18T05:31:31.256Z,212.56
2023-02-18T05:32:26.341Z,213.67
2023-02-18T05:33:22.940Z,210.92
2023-02-18T05:34:18.134Z,212.97
2023-02-18T05:35:13.957Z,212.83
2023-02-18T05:36:09.265Z,213.80
2023-02-18T05:37:04.466Z,215.21
2023-02-18T05:38:00.223Z,213.67
2023-02-18T05:38:56.713Z,212.97
2023-02-18T05:39:51.264Z,213.11
2023-02-18T05:40:46.400Z,213.67
2023-02-18T05:41:41.519Z,213.25
2023-02-18T05:42:37.350Z,214.08
2023-02-18T05:43:32.582Z,215.21
2023-02-18T05:44:27.786Z,214.36
2023-02-18T05:45:24.112Z,215.21
2023-02-18T05:46:19.219Z,213.11
2023-02-18T05:47:15.055Z,214.50
2023-02-18T05:48:10.291Z,215.07
2023-02-18T05:49:05.691Z,215.77
2023-02-18T05:50:01.396Z,214.93
2023-02-18T05:50:56.501Z,216.34
2023-02-18T05:51:52.316Z,218.36
2023-02-18T05:52:47.503Z,219.38
2023-02-18T05:53:42.777Z,219.53
2023-02-18T05:54:38.609Z,219.67
2023-02-18T05:55:33.742Z,221.90
2023-02-18T05:56:28.825Z,220.26
2023-02-18T05:57:25.289Z,217.49
2023-02-18T05:58:20.405Z,216.20
2023-02-18T05:59:16.348Z,215.63
2023-02-18T06:01:40.559Z,190.69
2023-02-18T06:02:33.804Z,191.14
2023-02-18T06:03:28.900Z,193.62
2023-02-18T06:04:24.125Z,197.58
2023-02-18T06:05:19.285Z,201.59
2023-02-18T06:06:14.422Z,204.10
2023-02-18T06:07:09.522Z,206.02
2023-02-18T06:08:04.648Z,206.02
2023-02-18T06:08:59.877Z,205.63
2023-02-18T06:09:55.101Z,208.24
2023-02-18T06:10:50.238Z,209.57
2023-02-18T06:11:45.526Z,205.76
2023-02-18T06:12:40.584Z,195.46
2023-02-18T06:13:35.711Z,190.91
2023-02-18T06:14:30.862Z,193.73
2023-02-18T06:15:26.069Z,197.70
2023-02-18T06:16:21.354Z,199.02
2023-02-18T06:17:16.385Z,203.09
2023-02-18T06:18:11.652Z,204.10
2023-02-18T06:19:06.735Z,204.10
2023-02-18T06:20:01.893Z,207.71
2023-02-18T06:20:57.096Z,207.06
2023-02-18T06:21:52.460Z,208.11
2023-02-18T06:22:47.461Z,206.54
2023-02-18T06:23:43.318Z,205.63
2023-02-18T06:24:38.123Z,206.67
2023-02-18T06:25:33.089Z,205.89
2023-02-18T06:26:28.281Z,206.41
2023-02-18T06:27:23.613Z,206.41
2023-02-18T06:28:18.925Z,207.45
2023-02-18T06:29:14.312Z,208.77
2023-02-18T06:30:09.147Z,209.30
2023-02-18T06:31:04.401Z,209.17
2023-02-18T06:31:59.959Z,209.17
2023-02-18T06:32:55.077Z,209.97
2023-02-18T06:33:50.387Z,209.44
2023-02-18T06:34:45.751Z,210.92
2023-02-18T06:35:40.686Z,212.42
2023-02-18T06:36:35.959Z,212.70
2023-02-18T06:37:31.180Z,212.28
2023-02-18T06:38:26.557Z,213.53
2023-02-18T06:39:21.734Z,214.08
2023-02-18T06:40:16.894Z,213.11
2023-02-18T06:41:12.228Z,213.80
2023-02-18T06:42:07.445Z,214.22
2023-02-18T06:43:02.570Z,212.97
2023-02-18T06:43:57.992Z,211.46
2023-02-18T06:44:53.218Z,211.46
2023-02-18T06:45:48.441Z,212.56
2023-02-18T06:46:43.707Z,212.70
2023-02-18T06:47:38.973Z,209.84
2023-02-18T06:48:34.322Z,213.25
2023-02-18T06:49:29.663Z,213.39
2023-02-18T06:50:24.850Z,212.42
2023-02-18T06:51:19.978Z,214.08
2023-02-18T06:52:15.341Z,214.50
2023-02-18T06:53:10.504Z,215.91
2023-02-18T06:54:06.073Z,214.36
2023-02-18T06:55:01.067Z,214.93
2023-02-18T06:55:56.314Z,215.49
2023-02-18T06:56:52.278Z,215.07
2023-02-18T06:57:47.051Z,214.36
2023-02-18T06:58:42.319Z,216.34
2023-02-18T06:59:37.746Z,216.63
2023-02-18T07:00:33.037Z,217.78
2023-02-18T07:01:29.288Z,216.77
2023-02-18T07:02:24.860Z,218.36
2023-02-18T07:03:19.883Z,216.20
2023-02-18T07:04:15.166Z,215.35
2023-02-18T07:05:10.503Z,212.15
2023-02-18T07:06:05.682Z,211.46
2023-02-18T07:07:00.880Z,211.60
2023-02-18T07:07:55.930Z,211.19
2023-02-18T07:08:50.942Z,210.11
2023-02-18T07:09:45.942Z,211.74
2023-02-18T07:10:40.944Z,210.92
2023-02-18T07:11:35.985Z,210.92
2023-02-18T07:12:31.120Z,209.97
2023-02-18T07:13:26.169Z,213.11
2023-02-18T07:14:21.133Z,209.44
2023-02-18T07:15:17.248Z,210.65
2023-02-18T07:16:12.425Z,210.24
2023-02-18T07:17:07.482Z,199.38
2023-02-18T07:18:02.342Z,197.94
2023-02-18T07:18:57.485Z,203.84
2023-02-18T07:19:52.513Z,203.21
2023-02-18T07:20:47.540Z,202.58
2023-02-18T07:23:27.407Z,174.37
2023-02-18T07:24:22.454Z,177.34
2023-02-18T07:25:17.708Z,184.19
2023-02-18T07:26:13.041Z,187.10
2023-02-18T07:27:08.471Z,186.04
2023-02-18T07:28:03.715Z,186.68
2023-02-18T07:28:59.161Z,192.03
2023-02-18T07:29:54.474Z,194.77
2023-02-18T07:30:50.066Z,198.06
2023-02-18T07:31:45.374Z,201.46
2023-02-18T07:32:40.585Z,203.72
2023-02-18T07:33:35.862Z,207.32
2023-02-18T07:34:31.093Z,210.11
2023-02-18T07:35:26.453Z,212.01
2023-02-18T07:36:21.789Z,207.85
2023-02-18T07:37:17.283Z,207.19
2023-02-18T07:38:12.700Z,210.38
2023-02-18T07:39:07.925Z,211.87
2023-02-18T07:40:03.318Z,214.64
2023-02-18T07:40:58.674Z,213.39
2023-02-18T07:41:54.133Z,213.53
2023-02-18T07:42:49.539Z,214.08
2023-02-18T07:43:44.798Z,212.70
2023-02-18T07:44:40.043Z,215.63
2023-02-18T07:45:35.427Z,216.49
2023-02-18T07:46:30.825Z,214.22
2023-02-18T07:47:26.406Z,214.36
2023-02-18T07:48:21.500Z,218.36
2023-02-18T07:49:16.982Z,218.50
2023-02-18T07:50:12.296Z,202.71
2023-02-18T07:51:07.587Z,198.30
2023-02-18T07:52:04.462Z,203.21
2023-02-18T07:52:58.295Z,209.04
2023-02-18T07:53:53.839Z,212.83
2023-02-18T07:54:49.235Z,217.63
2023-02-18T07:55:44.617Z,222.20
2023-02-18T07:56:40.008Z,222.81
2023-02-18T07:57:35.362Z,222.50
2023-02-18T07:58:30.620Z,221.30
2023-02-18T08:00:52.290Z,202.71
2023-02-18T08:01:47.990Z,200.85
2023-02-18T08:02:42.878Z,203.84
2023-02-18T08:03:38.273Z,208.11
2023-02-18T08:04:33.690Z,210.24
2023-02-18T08:05:29.098Z,214.50
2023-02-18T08:06:24.671Z,218.50
2023-02-18T08:07:20.071Z,220.41
2023-02-18T08:08:15.665Z,224.48
2023-02-18T08:09:11.095Z,224.33
2023-02-18T08:10:06.345Z,226.03
2023-02-18T08:11:07.161Z,226.50
2023-02-18T08:11:58.366Z,224.64
2023-02-18T08:12:52.686Z,227.60
2023-02-18T08:13:48.308Z,228.39
2023-02-18T08:14:43.503Z,224.48
2023-02-18T08:15:38.921Z,225.25
2023-02-18T08:16:34.304Z,226.50
2023-02-18T08:17:29.885Z,218.65
2023-02-18T08:18:25.274Z,196.16
2023-02-18T08:19:20.959Z,207.58
2023-02-18T08:20:16.300Z,213.25
2023-02-18T08:21:11.440Z,215.63
2023-02-18T08:22:06.910Z,218.94
2023-02-18T08:23:02.312Z,221.15
2023-02-18T08:23:57.725Z,223.87
2023-02-18T08:24:53.167Z,225.10
2023-02-18T08:25:50.171Z,229.35
2023-02-18T08:26:59.195Z,232.43
2023-02-18T08:27:40.530Z,235.94
2023-02-18T08:28:34.877Z,234.76
2023-02-18T08:29:30.656Z,234.60
2023-02-18T08:30:25.948Z,233.59
2023-02-18T08:31:21.230Z,235.10
2023-02-18T08:32:16.416Z,242.57
2023-02-18T08:33:11.845Z,245.66
2023-02-18T08:34:07.288Z,249.02
2023-02-18T08:35:02.861Z,249.39
2023-02-18T08:35:58.424Z,249.77
2023-02-18T08:36:53.848Z,250.54
2023-02-18T08:37:53.221Z,251.11
2023-02-18T08:38:45.521Z,252.08
2023-02-18T08:39:40.237Z,254.82
2023-02-18T08:40:35.526Z,255.41
2023-02-18T08:41:31.073Z,255.41
2023-02-18T08:42:26.449Z,251.88
2023-02-18T08:43:22.122Z,244.93
2023-02-18T08:44:17.498Z,246.40
2023-02-18T08:45:12.943Z,248.26
2023-02-18T08:46:08.282Z,249.21
2023-02-18T08:47:04.824Z,252.08
2023-02-18T08:48:19.698Z,248.26
2023-02-18T08:48:55.867Z,249.21
2023-02-18T08:49:50.244Z,245.66
2023-02-18T08:50:45.622Z,240.97
2023-02-18T08:51:41.155Z,243.83
2023-02-18T08:52:36.724Z,243.11
2023-02-18T08:53:31.873Z,246.58
2023-02-18T08:54:27.557Z,251.69
2023-02-18T08:55:22.725Z,252.46
2023-02-18T08:56:18.263Z,258.63
2023-02-18T08:57:13.710Z,261.10
2023-02-18T08:58:08.977Z,261.94
2023-02-18T08:59:04.395Z,256.81
2023-02-18T09:00:00.012Z,251.30
2023-02-18T09:00:55.309Z,246.95
2023-02-18T09:01:51.673Z,248.26
2023-02-18T09:02:46.173Z,249.39
2023-02-18T09:03:41.698Z,258.43
2023-02-18T09:04:36.996Z,266.40
2023-02-18T09:05:32.410Z,274.65
2023-02-18T09:06:27.961Z,280.77
2023-02-18T09:07:23.858Z,277.44
2023-02-18T09:08:18.654Z,280.77
2023-02-18T09:09:14.162Z,282.70
2023-02-18T09:10:09.625Z,286.40
2023-02-18T09:11:04.910Z,282.70
2023-02-18T09:12:00.456Z,283.19
2023-02-18T09:12:55.866Z,286.65
2023-02-18T09:13:51.168Z,286.40
2023-02-18T09:14:46.896Z,282.94
2023-02-18T09:15:42.295Z,288.42
2023-02-18T09:16:37.678Z,291.75
2023-02-18T09:17:33.109Z,292.27
2023-02-18T09:18:28.640Z,289.69
2023-02-18T09:19:24.229Z,287.91
2023-02-18T09:20:19.696Z,293.58
2023-02-18T09:21:15.056Z,296.76
2023-02-18T09:22:10.585Z,298.38
2023-02-18T09:23:06.295Z,302.23
2023-02-18T09:24:01.419Z,299.47
2023-02-18T09:24:56.872Z,307.04
2023-02-18T09:25:52.624Z,314.09
2023-02-18T09:26:47.931Z,316.21
2023-02-18T09:27:43.471Z,315.30
2023-02-18T09:28:39.027Z,322.42
2023-02-18T09:29:34.302Z,322.74
2023-02-18T09:30:29.623Z,321.16
2023-02-18T09:31:25.065Z,319.91
2023-02-18T09:32:33.622Z,316.21
2023-02-18T09:33:16.919Z,319.60
2023-02-18T09:34:11.427Z,327.58
2023-02-18T09:35:06.694Z,326.60
2023-02-18T09:36:02.122Z,327.25
2023-02-18T09:36:57.558Z,325.95
2023-02-18T09:37:53.107Z,331.21
2023-02-18T09:38:49.464Z,334.25
2023-02-18T09:39:43.873Z,335.27
2023-02-18T09:40:39.327Z,331.21
2023-02-18T09:41:35.182Z,330.21
2023-02-18T09:42:30.533Z,335.62
2023-02-18T09:43:25.998Z,347.34
2023-02-18T09:44:21.522Z,333.91
2023-02-18T09:45:16.825Z,331.21
2023-02-18T09:46:12.358Z,341.91
2023-02-18T09:47:07.746Z,340.14
2023-02-18T09:48:03.364Z,342.63
2023-02-18T09:48:58.960Z,340.14
2023-02-18T09:49:54.357Z,331.21
2023-02-18T09:50:49.962Z,330.21
2023-02-18T09:51:45.563Z,336.30
2023-02-18T09:52:40.865Z,345.15
2023-02-18T09:53:36.436Z,351.06
2023-02-18T09:54:31.768Z,351.43
2023-02-18T09:55:27.260Z,350.31
2023-02-18T09:56:22.761Z,347.34
2023-02-18T09:57:18.351Z,366.34
2023-02-18T09:58:13.857Z,364.71
2023-02-18T09:59:09.398Z,361.90
2023-02-18T10:00:05.638Z,387.47
2023-02-18T10:01:00.146Z,404.14
2023-02-18T10:01:55.840Z,418.34
2023-02-18T10:02:51.027Z,422.31
2023-02-18T10:03:46.660Z,424.46
2023-02-18T10:04:42.145Z,433.57
2023-02-18T10:05:37.834Z,440.15
2023-02-18T10:06:33.173Z,448.14
2023-02-18T10:07:28.684Z,448.14
2023-02-18T10:08:24.268Z,464.69
2023-02-18T10:09:19.717Z,476.99
2023-02-18T10:10:15.156Z,489.96
2023-02-18T10:11:10.742Z,488.17
2023-02-18T10:12:06.014Z,501.00
2023-02-18T10:13:01.484Z,507.87
2023-02-18T10:13:57.065Z,481.12
2023-02-18T10:14:52.585Z,484.27
2023-02-18T10:15:47.924Z,482.86
2023-02-18T10:16:43.519Z,497.27
2023-02-18T10:17:38.946Z,504.41
2023-02-18T10:18:34.491Z,513.34
2023-02-18T10:19:29.930Z,502.89
2023-02-18T10:20:25.574Z,483.21
2023-02-18T10:21:20.906Z,496.89
2023-02-18T10:22:16.510Z,509.81
2023-02-18T10:23:12.133Z,504.41
2023-02-18T10:24:07.569Z,493.95
2023-02-18T10:25:03.183Z,509.03
2023-02-18T10:25:58.663Z,504.41
2023-02-18T10:26:53.833Z,488.52
2023-02-18T10:27:49.446Z,510.20
2023-02-18T10:28:44.873Z,510.98
2023-02-18T10:29:40.209Z,519.74
2023-02-18T10:30:35.906Z,529.65
2023-02-18T10:31:31.413Z,543.02
2023-02-18T10:32:26.759Z,537.77
2023-02-18T10:33:22.216Z,527.98
2023-02-18T10:34:17.701Z,525.89
2023-02-18T10:35:13.309Z,524.65
2023-02-18T10:36:08.717Z,501.38
2023-02-18T10:37:04.284Z,499.88
2023-02-18T10:37:59.569Z,495.79
2023-02-18T10:38:55.105Z,481.12
2023-02-18T10:39:50.550Z,470.60
2023-02-18T10:40:46.278Z,462.12
2023-02-18T10:41:41.519Z,469.27
2023-02-18T10:42:38.280Z,463.72
2023-02-18T10:43:32.773Z,426.09
2023-02-18T10:44:28.368Z,422.05
2023-02-18T10:45:23.678Z,399.78
2023-02-18T10:46:19.195Z,409.60
2023-02-18T10:47:14.819Z,408.35
2023-02-18T10:48:10.273Z,391.56
2023-02-18T10:49:05.858Z,392.95
2023-02-18T10:50:01.491Z,398.58
2023-02-18T10:50:56.796Z,403.16
2023-02-18T10:51:52.124Z,405.86
2023-02-18T10:52:47.748Z,394.81
2023-02-18T10:53:43.306Z,395.75
2023-02-18T10:54:38.873Z,404.88
2023-02-18T10:55:34.350Z,409.60
2023-02-18T10:56:29.721Z,410.86
2023-02-18T10:57:25.293Z,417.82
2023-02-18T10:58:20.745Z,408.60
2023-02-18T10:59:16.199Z,419.66
2023-02-18T11:00:11.573Z,422.85
2023-02-18T11:01:07.700Z,424.73
2023-02-18T11:02:02.689Z,439.28
2023-02-18T11:02:58.078Z,389.51
2023-02-18T11:03:53.364Z,386.57
2023-02-18T11:04:48.896Z,383.90
2023-02-18T11:05:44.456Z,383.68
2023-02-18T11:06:39.952Z,395.04
2023-02-18T11:07:35.085Z,414.44
2023-02-18T11:08:30.583Z,420.98
2023-02-18T11:09:26.056Z,426.36
2023-02-18T11:10:21.560Z,432.17
2023-02-18T11:11:17.050Z,419.92
2023-02-18T11:12:12.371Z,416.77
2023-02-18T11:13:07.828Z,423.12
2023-02-18T11:14:03.550Z,426.64
2023-02-18T11:14:58.756Z,408.60
2023-02-18T11:15:54.383Z,414.70
2023-02-18T11:16:49.617Z,397.40
2023-02-18T11:17:45.064Z,387.69
2023-02-18T11:18:40.863Z,393.88
2023-02-18T11:19:36.212Z,390.88
2023-02-18T11:20:31.679Z,343.34
2023-02-18T11:21:27.134Z,354.85
2023-02-18T11:22:22.455Z,373.01
2023-02-18T11:23:17.921Z,377.73
2023-02-18T11:24:13.483Z,373.43
2023-02-18T11:25:08.689Z,391.33
2023-02-18T11:26:04.112Z,392.95
2023-02-18T11:26:59.870Z,396.69
2023-02-18T11:27:55.249Z,414.95
2023-02-18T11:28:50.699Z,352.57
2023-02-18T11:29:46.268Z,308.19
2023-02-18T11:30:41.824Z,131.81
2023-02-18T11:31:37.190Z,99.27
2023-02-18T11:32:32.498Z,94.87
2023-02-18T11:33:28.587Z,94.78
2023-02-18T11:34:23.413Z,96.29
2023-02-18T11:35:18.682Z,104.62
2023-02-18T11:36:14.094Z,118.10